createdAt,value
2022-10-11T00:02:49.426Z,101228.94
2022-10-11T00:07:52.127Z,101228.94
2022-10-11T00:12:54.342Z,101214.13
2022-10-11T00:17:57.114Z,101213.09
2022-10-11T00:22:59.295Z,101212.03
2022-10-11T00:28:01.701Z,101217.25
2022-10-11T00:33:04.040Z,101190.81
2022-10-11T00:38:06.490Z,101201.63
2022-10-11T00:43:22.047Z,101184.13
2022-10-11T00:48:29.591Z,101200.16
2022-10-11T00:53:33.201Z,101167.03
2022-10-11T00:58:36.926Z,101180.34
2022-10-11T01:03:39.937Z,101161.41
2022-10-11T01:08:42.619Z,101185.53
2022-10-11T01:14:13.831Z,101186.41
2022-10-11T01:19:37.670Z,101178.50
2022-10-11T01:24:39.794Z,101179.97
2022-10-11T01:30:06.097Z,101163.31
2022-10-11T01:35:15.876Z,101173.53
2022-10-11T01:40:42.394Z,101159.16
2022-10-11T01:45:46.148Z,101164.38
2022-10-11T01:50:53.607Z,101159.56
2022-10-11T01:56:09.618Z,101149.56
2022-10-11T02:01:27.762Z,101168.34
2022-10-11T02:06:58.591Z,101123.31
2022-10-11T02:12:13.081Z,101153.94
2022-10-11T02:17:20.304Z,101133.31
2022-10-11T02:22:44.695Z,101137.91
2022-10-11T02:27:50.959Z,101149.38
2022-10-11T02:32:55.049Z,101125.00
2022-10-11T02:38:13.936Z,101104.34
2022-10-11T02:43:33.522Z,101144.75
2022-10-11T02:48:36.632Z,101150.19
2022-10-11T02:53:39.009Z,101127.72
2022-10-11T02:58:41.383Z,101120.59
2022-10-11T03:03:43.587Z,101117.69
2022-10-11T03:08:46.030Z,101084.38
2022-10-11T03:13:48.451Z,101131.88
2022-10-11T03:18:50.984Z,101118.53
2022-10-11T03:23:53.337Z,101110.66
2022-10-11T03:28:55.831Z,101138.13
2022-10-11T03:33:58.099Z,101141.44
2022-10-11T03:39:01.078Z,101136.88
2022-10-11T03:44:03.393Z,101112.69
2022-10-11T03:49:05.820Z,101141.84
2022-10-11T03:54:08.193Z,101148.75
2022-10-11T03:59:11.122Z,101121.69
2022-10-11T04:04:13.325Z,101110.66
2022-10-11T04:09:15.542Z,101134.56
2022-10-11T04:14:17.969Z,101125.63
2022-10-11T04:19:20.625Z,101118.09
2022-10-11T04:24:22.939Z,101125.41
2022-10-11T04:29:31.430Z,101126.22
2022-10-11T04:34:34.939Z,101125.63
2022-10-11T04:39:37.688Z,101120.59
2022-10-11T04:44:40.046Z,101094.41
2022-10-11T04:49:42.265Z,101129.38
2022-10-11T04:54:44.526Z,101087.53
2022-10-11T04:59:50.215Z,101127.94
2022-10-11T05:04:52.659Z,101102.09
2022-10-11T05:09:55.061Z,101112.50
2022-10-11T05:14:58.493Z,101116.03
2022-10-11T05:20:00.839Z,101098.97
2022-10-11T05:25:03.134Z,101096.66
2022-10-11T05:30:06.134Z,101124.13
2022-10-11T05:35:08.812Z,101132.47
2022-10-11T05:40:11.626Z,101114.38
2022-10-11T05:45:13.923Z,101119.16
2022-10-11T05:50:19.636Z,101123.53
2022-10-11T05:55:24.702Z,101128.50
2022-10-11T06:00:27.619Z,101140.81
2022-10-11T06:06:25.695Z,101145.41
2022-10-11T06:11:28.508Z,101140.19
2022-10-11T06:16:30.673Z,101113.53
2022-10-11T06:21:33.473Z,101132.28
2022-10-11T06:26:35.895Z,101165.19
2022-10-11T06:31:38.107Z,101168.13
2022-10-11T06:36:40.394Z,101156.63
2022-10-11T06:41:42.676Z,101181.81
2022-10-11T06:46:44.844Z,101177.84
2022-10-11T06:51:47.212Z,101173.88
2022-10-11T06:56:49.713Z,101177.63
2022-10-11T07:01:51.876Z,101133.72
2022-10-11T07:06:54.079Z,101154.31
2022-10-11T07:11:56.273Z,101173.41
2022-10-11T07:16:58.486Z,101144.50
2022-10-11T07:22:00.778Z,101144.88
2022-10-11T07:27:03.731Z,101158.59
2022-10-11T07:32:06.639Z,101166.47
2022-10-11T07:37:09.050Z,101141.41
2022-10-11T07:42:11.339Z,101151.56
2022-10-11T07:47:13.635Z,101161.69
2022-10-11T07:52:15.830Z,101158.69
2022-10-11T07:57:18.024Z,101149.53
2022-10-11T08:02:20.305Z,101148.63
2022-10-11T08:07:22.557Z,101167.09
2022-10-11T08:12:24.710Z,101167.47
2022-10-11T08:17:27.074Z,101150.59
2022-10-11T08:22:29.259Z,101148.88
2022-10-11T08:27:31.733Z,101169.69
2022-10-11T08:32:34.186Z,101146.09
2022-10-11T08:37:36.583Z,101128.72
2022-10-11T08:43:14.263Z,101142.41
2022-10-11T08:48:27.250Z,101093.56
2022-10-11T08:53:57.394Z,101120.69
2022-10-11T08:59:04.905Z,101117.22
2022-10-11T09:04:10.880Z,101132.91
2022-10-11T09:09:53.299Z,101125.03
2022-10-11T09:15:03.726Z,101123.50
2022-10-11T09:20:31.842Z,101121.13
2022-10-11T09:25:38.385Z,101120.59
2022-10-11T09:30:48.745Z,101115.88
2022-10-11T09:35:52.771Z,101123.44
2022-10-11T09:41:19.298Z,101125.59
2022-10-11T09:46:35.161Z,101125.69
2022-10-11T09:51:38.312Z,101130.41
2022-10-11T09:56:44.355Z,101104.38
2022-10-11T10:01:46.813Z,101100.94
2022-10-11T10:06:49.102Z,101070.25
2022-10-11T10:11:51.824Z,101097.25
2022-10-11T10:17:15.960Z,101062.06
2022-10-11T10:22:27.977Z,101063.00
2022-10-11T10:27:31.765Z,101067.56
2022-10-11T10:32:54.094Z,101033.22
2022-10-11T10:38:17.020Z,101072.66
2022-10-11T10:43:22.230Z,101061.38
2022-10-11T10:49:23.227Z,101039.00
2022-10-11T10:54:23.817Z,101040.34
2022-10-11T10:59:31.773Z,101047.84
2022-10-11T11:04:35.826Z,101024.41
2022-10-11T11:10:02.530Z,101022.13
2022-10-11T11:15:19.599Z,101007.53
2022-10-11T11:20:30.767Z,101010.22
2022-10-11T11:25:44.873Z,101013.25
2022-10-11T11:30:57.728Z,101006.06
2022-10-11T11:36:06.259Z,100987.53
2022-10-11T11:41:16.161Z,100985.56
2022-10-11T11:46:23.821Z,100992.25
2022-10-11T11:51:37.832Z,100976.38
2022-10-11T11:56:55.285Z,100979.44
2022-10-11T12:02:55.309Z,100963.44
2022-10-11T12:08:06.435Z,100978.53
2022-10-11T12:13:18.507Z,100972.97
2022-10-11T12:18:21.482Z,100955.72
2022-10-11T12:23:29.574Z,100972.44
2022-10-11T12:28:37.511Z,100962.97
2022-10-11T12:33:39.707Z,100963.56
2022-10-11T12:38:42.298Z,100939.34
2022-10-11T12:43:50.590Z,100959.94
2022-10-11T12:49:14.581Z,100931.25
2022-10-11T12:54:43.033Z,100956.25
2022-10-11T12:59:47.984Z,100949.13
2022-10-11T13:04:50.290Z,100949.66
2022-10-11T13:09:56.301Z,100923.34
2022-10-11T13:15:05.916Z,100947.69
2022-10-11T13:20:18.518Z,100945.94
2022-10-11T13:25:23.898Z,100946.19
2022-10-11T13:30:34.844Z,100925.66
2022-10-11T13:35:38.945Z,100938.31
2022-10-11T13:40:41.243Z,100929.59
2022-10-11T13:45:43.590Z,100921.91
2022-10-11T13:50:52.918Z,100929.84
2022-10-11T13:55:59.749Z,100922.13
2022-10-11T14:01:05.593Z,100924.94
2022-10-11T14:06:08.872Z,100925.16
2022-10-11T14:11:13.991Z,100923.66
2022-10-11T14:16:19.350Z,100930.06
2022-10-11T14:21:25.794Z,100923.22
2022-10-11T14:26:36.273Z,100921.72
2022-10-11T14:31:42.028Z,100901.34
2022-10-11T14:36:44.450Z,100918.91
2022-10-11T14:41:47.593Z,100913.78
2022-10-11T14:46:54.033Z,100921.50
2022-10-11T14:51:58.698Z,100924.13
2022-10-11T14:57:03.396Z,100894.59
2022-10-11T15:02:08.892Z,100931.13
2022-10-11T15:07:13.419Z,100915.88
2022-10-11T15:12:15.632Z,100928.94
2022-10-11T15:17:18.054Z,100922.56
2022-10-11T15:22:20.434Z,100913.34
2022-10-11T15:27:25.997Z,100930.50
2022-10-11T15:32:28.123Z,100941.41
2022-10-11T15:37:33.783Z,100939.75
2022-10-11T15:42:38.727Z,100946.13
2022-10-11T15:47:40.965Z,100936.09
2022-10-11T15:52:43.195Z,100947.69
2022-10-11T15:57:45.790Z,100967.22
2022-10-11T16:02:48.067Z,100953.38
2022-10-11T16:07:53.903Z,100951.59
2022-10-11T16:12:56.506Z,100972.06
2022-10-11T16:17:58.748Z,100957.28
2022-10-11T16:23:01.208Z,100962.50
2022-10-11T16:28:04.193Z,100976.91
2022-10-11T16:33:06.518Z,100964.72
2022-10-11T16:38:10.463Z,100985.28
2022-10-11T16:43:12.723Z,100977.97
2022-10-11T16:48:14.910Z,100973.19
2022-10-11T16:53:21.856Z,100971.41
2022-10-11T16:58:24.482Z,100997.31
2022-10-11T17:03:26.861Z,100985.00
2022-10-11T17:08:29.685Z,100994.72
2022-10-11T17:13:31.957Z,100989.38
2022-10-11T17:18:34.288Z,100992.44
2022-10-11T17:23:37.350Z,101010.38
2022-10-11T17:28:39.563Z,100999.28
2022-10-11T17:33:41.900Z,100985.56
2022-10-11T17:38:44.371Z,101025.09
2022-10-11T17:43:47.147Z,100997.50
2022-10-11T17:48:51.965Z,101022.25
2022-10-11T17:53:54.769Z,101017.25
2022-10-11T17:58:58.829Z,101030.75
2022-10-11T18:04:03.598Z,101029.56
2022-10-11T18:09:06.236Z,101027.91
2022-10-11T18:14:08.701Z,101020.31
2022-10-11T18:19:12.863Z,101021.28
2022-10-11T18:24:17.038Z,101035.84
2022-10-11T18:29:19.197Z,101014.28
2022-10-11T18:34:21.356Z,101018.88
2022-10-11T18:39:23.570Z,101028.25
2022-10-11T18:44:25.893Z,101023.97
2022-10-11T18:49:28.060Z,101030.16
2022-10-11T18:54:30.262Z,101021.34
2022-10-11T18:59:33.371Z,101016.56
2022-10-11T19:04:35.522Z,101036.50
2022-10-11T19:09:38.209Z,101012.06
2022-10-11T19:14:40.574Z,101014.56
2022-10-11T19:19:42.727Z,101021.03
2022-10-11T19:24:46.139Z,101019.25
2022-10-11T19:29:48.368Z,101034.28
2022-10-11T19:34:51.122Z,101050.72
2022-10-11T19:39:53.263Z,101044.38
2022-10-11T19:44:55.661Z,101058.59
2022-10-11T19:49:58.042Z,101040.81
2022-10-11T19:55:00.199Z,101060.88
2022-10-11T20:00:02.398Z,101059.66
2022-10-11T20:05:04.935Z,101050.31
2022-10-11T20:10:07.221Z,101060.25
2022-10-11T20:15:09.831Z,101070.06
2022-10-11T20:20:12.047Z,101061.41
2022-10-11T20:25:14.242Z,101072.41
2022-10-11T20:30:16.459Z,101065.31
2022-10-11T20:35:18.611Z,101069.91
2022-10-11T20:40:20.969Z,101064.34
2022-10-11T20:45:23.269Z,101073.34
2022-10-11T20:50:25.690Z,101085.78
2022-10-11T20:55:28.252Z,101088.72
2022-10-11T21:00:31.004Z,101077.94
2022-10-11T21:05:33.722Z,101075.34
2022-10-11T21:10:36.723Z,101050.00
2022-10-11T21:15:38.963Z,101041.56
2022-10-11T21:20:42.729Z,101073.94
2022-10-11T21:25:45.306Z,101068.34
2022-10-11T21:30:47.541Z,101054.44
2022-10-11T21:35:49.743Z,101050.53
2022-10-11T21:40:52.289Z,101057.50
2022-10-11T21:45:54.597Z,101053.47
2022-10-11T21:50:56.993Z,101068.03
2022-10-11T21:56:01.900Z,101068.72
2022-10-11T22:01:04.579Z,101080.94
2022-10-11T22:06:06.931Z,101077.63
2022-10-11T22:11:09.520Z,101059.72
2022-10-11T22:16:14.030Z,101071.38
2022-10-11T22:21:21.575Z,101064.28
2022-10-11T22:26:31.207Z,101060.72
2022-10-11T22:31:35.205Z,101042.00
2022-10-11T22:36:38.360Z,101032.63
2022-10-11T22:41:42.177Z,101032.25
2022-10-11T22:46:44.333Z,101054.50
2022-10-11T22:51:46.720Z,101037.53
2022-10-11T22:56:49.010Z,101066.44
2022-10-11T23:01:51.189Z,101044.97
2022-10-11T23:06:53.454Z,101052.09
2022-10-11T23:11:56.336Z,101059.03
2022-10-11T23:16:58.492Z,101061.50
2022-10-11T23:22:00.813Z,101049.75
2022-10-11T23:27:03.008Z,101052.38
2022-10-11T23:32:05.393Z,101061.75
2022-10-11T23:37:07.954Z,101053.28
2022-10-11T23:42:10.432Z,101059.31
2022-10-11T23:47:12.601Z,101052.50
2022-10-11T23:52:14.962Z,101049.69
2022-10-11T23:57:17.137Z,101064.19
